Time;durP1;ratioP1;P1;durP2;ratioP2;P2;SDS_P1;SDS_P2;PMS_P1;PMS_P2;Temp;Humidity;BMP_temperature;BMP_pressure;BME280_temperature;BME280_humidity;BME280_pressure;Samples;Min_cycle;Max_cycle;Signal;HPM_P1;HPM_P2
2022/10/09 00:01:22;;;;;;;10.97;4.50;;;;;;;8.78;84.79;96043.41;1757236;82;21434;-66
2022/10/09 00:03:51;;;;;;;5.90;4.23;;;;;;;8.85;84.83;96043.82;1757169;82;21030;-65
2022/10/09 00:06:23;;;;;;;6.70;4.57;;;;;;;8.85;84.09;96050.84;1757035;81;21007;-65
2022/10/09 00:08:50;;;;;;;8.00;4.90;;;;;;;8.83;84.52;96048.21;1757239;81;21007;-65
2022/10/09 00:11:22;;;;;;;7.83;5.63;;;;;;;8.82;84.39;96042.94;1757249;81;20975;-65
2022/10/09 00:13:50;;;;;;;7.47;5.30;;;;;;;8.77;84.12;96049.56;1756340;82;21030;-65
2022/10/09 00:16:18;;;;;;;6.30;5.00;;;;;;;8.80;84.34;96046.05;1757168;81;21096;-66
2022/10/09 00:18:46;;;;;;;11.53;5.10;;;;;;;8.87;84.52;96043.38;1756837;82;21067;-66
2022/10/09 00:21:21;;;;;;;8.30;4.80;;;;;;;8.87;83.30;96046.46;1757204;82;20979;-65
2022/10/09 00:23:49;;;;;;;9.70;4.20;;;;;;;8.80;83.56;96046.05;1756392;82;21094;-66
2022/10/09 00:26:16;;;;;;;8.63;4.20;;;;;;;8.77;84.17;96046.94;1757332;81;21030;-65
2022/10/09 00:28:45;;;;;;;6.17;4.80;;;;;;;8.71;83.92;96040.81;1756863;82;21096;-66
2022/10/09 00:31:12;;;;;;;6.13;4.93;;;;;;;8.65;84.01;96039.95;1757048;81;20967;-65
2022/10/09 00:33:39;;;;;;;8.13;4.97;;;;;;;8.57;82.76;96043.52;1757086;81;21450;-66
2022/10/09 00:36:10;;;;;;;8.93;5.17;;;;;;;8.45;83.36;96047.91;1756928;82;21019;-66
2022/10/09 00:38:38;;;;;;;6.97;5.53;;;;;;;8.43;84.33;96043.54;1756190;82;21042;-65
2022/10/09 00:41:05;;;;;;;9.53;5.87;;;;;;;8.46;84.41;96046.16;1757157;81;21537;-65
2022/10/09 00:43:46;;;;;;;7.57;4.83;;;;;;;8.54;84.47;96041.77;1757047;82;20995;-65
2022/10/09 00:46:32;;;;;;;6.67;4.37;;;;;;;8.53;83.44;96036.50;1757166;81;20999;-65
2022/10/09 00:49:16;;;;;;;7.30;4.50;;;;;;;8.42;83.55;96033.47;1756867;81;21031;-65
2022/10/09 00:51:45;;;;;;;7.07;5.40;;;;;;;8.45;83.64;96029.95;1757019;81;20991;-65
2022/10/09 00:54:15;;;;;;;5.77;4.50;;;;;;;8.38;83.17;96030.37;1757095;81;21011;-65
2022/10/09 00:56:42;;;;;;;10.13;5.17;;;;;;;8.32;83.29;96036.98;1752660;82;21095;-65
2022/10/09 00:59:11;;;;;;;8.17;4.43;;;;;;;8.42;83.68;96034.78;1751061;82;21066;-65
2022/10/09 01:01:40;;;;;;;6.07;5.10;;;;;;;8.45;83.32;96032.59;1751554;82;21063;-67
2022/10/09 01:04:06;;;;;;;9.33;4.87;;;;;;;8.35;83.01;96036.96;1751501;81;20995;-66
2022/10/09 01:07:15;;;;;;;8.67;5.90;;;;;;;8.22;83.10;96033.48;1751319;82;20992;-66
2022/10/09 01:09:56;;;;;;;8.73;5.50;;;;;;;8.21;83.55;96034.80;1751777;81;21051;-66
2022/10/09 01:12:48;;;;;;;6.90;5.10;;;;;;;8.24;83.59;96037.00;1751597;81;21501;-65
2022/10/09 01:15:32;;;;;;;11.33;4.63;;;;;;;8.32;83.76;96038.73;1751175;81;21011;-66
2022/10/09 01:18:30;;;;;;;5.97;3.93;;;;;;;8.30;83.22;96035.23;1751137;82;21070;-65
2022/10/09 01:21:08;;;;;;;6.40;5.03;;;;;;;8.36;83.49;96037.83;1751338;81;21485;-65
2022/10/09 01:24:09;;;;;;;11.13;6.20;;;;;;;8.21;82.95;96033.48;1747717;82;21007;-65
2022/10/09 01:27:09;;;;;;;6.37;5.00;;;;;;;8.11;83.34;96035.25;1743648;82;21528;-65
2022/10/09 01:29:41;;;;;;;9.53;4.97;;;;;;;8.01;83.23;96036.14;1751637;81;21002;-65
2022/10/09 01:32:12;;;;;;;8.07;4.67;;;;;;;7.91;83.05;96044.92;1751514;81;21039;-65
2022/10/09 01:34:40;;;;;;;5.03;4.40;;;;;;;7.87;83.34;96045.37;1751396;82;21015;-65
2022/10/09 01:37:09;;;;;;;5.07;4.57;;;;;;;7.82;84.49;96052.39;1721652;82;21063;-65
2022/10/09 01:39:37;;;;;;;4.90;4.40;;;;;;;7.84;84.66;96064.19;1751657;82;21030;-66
2022/10/09 01:42:04;;;;;;;6.63;4.90;;;;;;;7.76;84.19;96056.31;1751548;81;21546;-65
2022/10/09 01:44:33;;;;;;;6.27;5.13;;;;;;;7.71;83.96;96055.44;1751795;82;20984;-65
2022/10/09 01:47:00;;;;;;;5.83;4.43;;;;;;;7.68;84.14;96059.38;1751639;81;21066;-66
2022/10/09 01:49:41;;;;;;;5.30;4.20;;;;;;;7.61;84.10;96053.27;1751432;81;21019;-66
2022/10/09 01:52:39;;;;;;;7.50;4.97;;;;;;;7.52;83.96;96054.57;1751620;81;21023;-65
2022/10/09 01:55:28;;;;;;;8.67;4.87;;;;;;;7.49;85.24;96051.95;1751620;81;21046;-66
2022/10/09 01:58:03;;;;;;;6.47;4.80;;;;;;;7.55;84.99;96050.19;1757108;82;21050;-65
2022/10/09 02:00:35;;;;;;;6.40;4.20;;;;;;;7.67;84.85;96048.45;1745642;82;21516;-65
2022/10/09 02:03:05;;;;;;;4.73;4.30;;;;;;;7.71;86.10;96049.77;1757117;82;21529;-65
2022/10/09 02:05:32;;;;;;;4.70;4.20;;;;;;;7.67;84.81;96049.32;1757137;82;21022;-65
2022/10/09 02:08:00;;;;;;;5.47;4.13;;;;;;;7.65;84.82;96047.57;1757137;82;21054;-65
2022/10/09 02:10:28;;;;;;;6.43;4.23;;;;;;;7.63;84.60;96043.62;1757328;81;21003;-65
2022/10/09 02:12:58;;;;;;;5.30;4.43;;;;;;;7.55;84.01;96040.99;1757216;81;21025;-65
2022/10/09 02:15:36;;;;;;;8.67;4.60;;;;;;;7.49;84.88;96046.25;1757256;81;21461;-65
2022/10/09 02:18:10;;;;;;;4.57;3.57;;;;;;;7.53;85.73;96047.12;1755522;82;21023;-66
2022/10/09 02:20:41;;;;;;;7.73;4.80;;;;;;;7.55;85.79;96045.37;1757234;81;20999;-65
2022/10/09 02:23:09;;;;;;;5.47;4.33;;;;;;;7.64;86.13;96055.03;1757063;81;21014;-65
2022/10/09 02:25:36;;;;;;;5.90;3.97;;;;;;;7.68;85.26;96059.38;1757212;81;21501;-66
2022/10/09 02:28:04;;;;;;;5.57;4.13;;;;;;;7.60;84.56;96054.13;1757290;82;21042;-66
2022/10/09 02:30:45;;;;;;;5.20;4.07;;;;;;;7.61;85.27;96059.84;1756697;82;20996;-66
2022/10/09 02:33:12;;;;;;;6.17;4.00;;;;;;;7.65;85.37;96060.70;1757312;82;21577;-66
2022/10/09 02:35:39;;;;;;;6.27;3.50;;;;;;;7.70;85.13;96066.39;1757046;81;21038;-65
2022/10/09 02:38:06;;;;;;;4.63;3.37;;;;;;;7.71;84.84;96068.16;1757173;81;21469;-66
2022/10/09 02:40:32;;;;;;;4.90;3.43;;;;;;;7.71;85.11;96062.00;1756952;82;21007;-65
2022/10/09 02:42:59;;;;;;;4.63;3.60;;;;;;;7.74;84.90;96064.66;1757100;82;21019;-65
2022/10/09 02:45:26;;;;;;;6.33;4.20;;;;;;;7.71;84.71;96065.53;1757134;81;20991;-65
2022/10/09 02:47:52;;;;;;;5.70;3.93;;;;;;;7.74;84.51;96072.09;1757301;82;21051;-65
2022/10/09 02:50:19;;;;;;;4.37;3.70;;;;;;;7.79;84.37;96069.02;1757220;82;21472;-65
2022/10/09 02:52:46;;;;;;;6.27;4.30;;;;;;;7.76;83.88;96070.75;1756657;81;21023;-65
2022/10/09 02:55:12;;;;;;;5.23;4.37;;;;;;;7.70;84.32;96070.77;1757479;81;21008;-65
2022/10/09 02:57:39;;;;;;;6.77;4.03;;;;;;;7.65;83.90;96066.83;1756862;82;21063;-65
2022/10/09 03:00:07;;;;;;;6.83;4.50;;;;;;;7.62;84.85;96073.39;1757110;82;21505;-65
2022/10/09 03:02:34;;;;;;;4.90;4.00;;;;;;;7.63;84.98;96075.13;1757333;82;21003;-65
2022/10/09 03:05:00;;;;;;;9.33;3.53;;;;;;;7.67;84.01;96073.41;1757103;81;21556;-65
2022/10/09 03:07:27;;;;;;;4.40;4.00;;;;;;;7.61;84.10;96075.59;1756943;81;21050;-66
2022/10/09 03:09:56;;;;;;;7.47;4.87;;;;;;;7.57;84.04;96073.83;1757255;81;21438;-65
2022/10/09 03:12:22;;;;;;;5.40;4.20;;;;;;;7.55;84.29;96068.56;1757287;81;21019;-66
2022/10/09 03:14:49;;;;;;;4.37;3.90;;;;;;;7.52;84.05;96069.02;1756905;82;21011;-66
2022/10/09 03:17:16;;;;;;;4.83;4.40;;;;;;;7.47;84.36;96070.76;1756936;81;21026;-66
2022/10/09 03:19:42;;;;;;;8.63;4.27;;;;;;;7.43;84.71;96071.17;1757272;82;20999;-66
2022/10/09 03:22:09;;;;;;;7.10;4.73;;;;;;;7.48;85.27;96069.42;1756840;82;21027;-65
2022/10/09 03:24:35;;;;;;;5.87;3.97;;;;;;;7.51;84.79;96062.89;1757017;82;20988;-65
2022/10/09 03:27:02;;;;;;;6.63;3.93;;;;;;;7.44;84.50;96076.88;1756885;81;21026;-65
2022/10/09 03:29:28;;;;;;;6.23;4.43;;;;;;;7.40;85.08;96080.81;1756862;82;21066;-65
2022/10/09 03:31:55;;;;;;;6.70;4.53;;;;;;;7.29;84.14;96080.36;1757009;81;21005;-65
2022/10/09 03:34:22;;;;;;;6.47;4.97;;;;;;;7.18;84.67;96086.44;1757095;81;21007;-65
2022/10/09 03:36:49;;;;;;;10.27;5.40;;;;;;;7.15;84.65;96086.00;1756770;81;21089;-65
2022/10/09 03:39:15;;;;;;;5.87;4.53;;;;;;;7.06;84.29;96090.80;1757285;81;20983;-65
2022/10/09 03:41:42;;;;;;;4.03;3.63;;;;;;;7.01;84.59;96085.11;1756723;82;21031;-65
2022/10/09 03:44:09;;;;;;;7.07;4.60;;;;;;;7.08;84.92;96088.16;1757121;82;21030;-65
2022/10/09 03:46:35;;;;;;;5.10;4.40;;;;;;;7.15;85.98;96096.50;1757214;81;21007;-65
2022/10/09 03:49:02;;;;;;;8.80;4.40;;;;;;;7.13;85.05;96092.98;1757194;82;21433;-66
2022/10/09 03:51:29;;;;;;;7.03;4.47;;;;;;;7.11;85.83;96097.38;1757173;81;21054;-66
2022/10/09 03:53:55;;;;;;;7.70;4.80;;;;;;;7.11;85.54;96096.07;1756919;81;21529;-66
2022/10/09 03:56:22;;;;;;;6.73;4.53;;;;;;;7.14;86.01;96099.56;1756779;82;21082;-66
2022/10/09 03:58:49;;;;;;;5.57;4.23;;;;;;;7.09;84.82;96101.74;1757062;81;20980;-65
2022/10/09 04:01:15;;;;;;;4.63;4.07;;;;;;;7.01;84.57;96105.66;1756678;81;21869;-65
2022/10/09 04:03:42;;;;;;;4.93;4.10;;;;;;;6.93;85.51;96103.00;1757181;82;20983;-65
2022/10/09 04:06:09;;;;;;;7.07;4.10;;;;;;;6.94;85.77;96103.43;1756691;82;21089;-65
2022/10/09 04:08:36;;;;;;;7.60;3.80;;;;;;;7.01;86.01;96106.09;1757123;82;21011;-65
2022/10/09 04:11:02;;;;;;;5.13;4.23;;;;;;;7.01;86.08;96095.60;1757068;82;21031;-65
2022/10/09 04:13:29;;;;;;;5.03;3.70;;;;;;;7.06;86.28;96094.73;1757201;81;20988;-65
2022/10/09 04:15:56;;;;;;;5.03;4.20;;;;;;;7.22;86.75;96087.77;1756780;81;20996;-65
2022/10/09 04:18:23;;;;;;;7.27;3.90;;;;;;;7.33;86.57;96087.38;1757419;81;21007;-65
2022/10/09 04:20:53;;;;;;;5.77;3.60;;;;;;;7.35;85.52;96085.60;1757089;82;20979;-65
2022/10/09 04:23:24;;;;;;;3.37;3.07;;;;;;;7.33;85.15;96091.31;1756934;81;20983;-66
2022/10/09 04:25:55;;;;;;;34.20;16.67;;;;;;;7.42;85.36;96089.13;1757093;81;21058;-65
2022/10/09 04:28:22;;;;;;;17.57;11.10;;;;;;;7.40;84.45;96088.69;1757180;82;21034;-65
2022/10/09 04:30:49;;;;;;;22.57;13.57;;;;;;;7.40;84.62;96093.94;1729679;82;21079;-66
2022/10/09 04:33:15;;;;;;;9.73;6.47;;;;;;;7.39;84.55;96098.76;1757215;81;20995;-65
2022/10/09 04:35:44;;;;;;;9.67;5.70;;;;;;;7.48;85.33;96098.31;1757284;82;21046;-65
2022/10/09 04:38:11;;;;;;;6.13;4.00;;;;;;;7.62;85.47;96093.54;1756865;82;21069;-65
2022/10/09 04:40:37;;;;;;;6.53;3.80;;;;;;;7.66;85.06;96089.61;1757129;82;21064;-65
2022/10/09 04:43:04;;;;;;;3.57;3.27;;;;;;;7.83;85.73;96096.60;1756563;82;21049;-65
2022/10/09 04:45:31;;;;;;;8.97;4.43;;;;;;;7.92;85.18;96100.11;1757169;82;21032;-65
2022/10/09 04:47:58;;;;;;;16.87;10.13;;;;;;;7.90;85.26;96099.23;1757207;82;20955;-65
2022/10/09 04:50:24;;;;;;;14.73;10.07;;;;;;;7.83;84.19;96105.35;1757214;81;20991;-65
2022/10/09 04:52:57;;;;;;;13.45;8.33;;;;;;;7.82;84.90;96100.98;1757104;81;21038;-65
2022/10/09 04:55:24;;;;;;;10.60;6.60;;;;;;;7.79;84.35;96099.67;1757185;82;21008;-65
2022/10/09 04:57:51;;;;;;;6.93;4.80;;;;;;;7.85;84.74;96100.11;1752017;82;21086;-66
2022/10/09 05:00:17;;;;;;;6.63;4.20;;;;;;;7.91;84.71;96098.78;1751258;81;21016;-65
2022/10/09 05:02:44;;;;;;;6.70;4.40;;;;;;;7.97;84.39;96098.80;1751470;81;21035;-65
2022/10/09 05:05:11;;;;;;;5.83;4.37;;;;;;;8.00;84.45;96101.42;1751262;81;20976;-66
2022/10/09 05:07:38;;;;;;;7.23;4.70;;;;;;;7.95;84.83;96101.41;1751553;82;20991;-66
2022/10/09 05:10:06;;;;;;;6.53;4.07;;;;;;;7.95;84.98;96102.73;1751687;81;21004;-66
2022/10/09 05:12:33;;;;;;;5.33;4.00;;;;;;;7.87;84.96;96109.74;1751543;82;21453;-66
2022/10/09 05:14:59;;;;;;;17.83;10.87;;;;;;;7.79;84.37;96117.62;1751633;81;21024;-66
2022/10/09 05:17:26;;;;;;;45.20;24.47;;;;;;;7.64;84.38;96114.98;1751398;82;21058;-65
2022/10/09 05:19:53;;;;;;;61.20;32.63;;;;;;;7.54;84.75;96110.59;1751135;82;20988;-65
2022/10/09 05:22:20;;;;;;;58.37;32.13;;;;;;;7.64;85.69;96120.69;1751462;81;21019;-65
2022/10/09 05:24:46;;;;;;;38.17;22.43;;;;;;;7.71;85.96;96115.44;1751586;81;21513;-65
2022/10/09 05:27:13;;;;;;;28.67;17.67;;;;;;;7.83;86.45;96121.11;1751297;82;21011;-65
2022/10/09 05:29:39;;;;;;;25.27;16.20;;;;;;;7.95;86.50;96121.56;1751204;82;21039;-65
2022/10/09 05:32:07;;;;;;;18.00;10.23;;;;;;;8.06;86.18;96127.68;1751623;81;21026;-65
2022/10/09 05:34:34;;;;;;;21.13;9.77;;;;;;;8.14;85.71;96135.56;1751236;82;21027;-66
2022/10/09 05:37:01;;;;;;;13.40;8.37;;;;;;;8.17;85.36;96127.25;1751665;82;21053;-65
2022/10/09 05:39:28;;;;;;;9.67;6.73;;;;;;;8.25;85.78;96136.45;1751519;81;20987;-66
2022/10/09 05:41:54;;;;;;;11.73;7.33;;;;;;;8.36;85.33;96143.00;1751369;82;21505;-65
2022/10/09 05:44:21;;;;;;;9.23;6.53;;;;;;;8.37;85.03;96143.45;1751193;82;21075;-66
2022/10/09 05:46:48;;;;;;;69.27;43.53;;;;;;;8.28;84.20;96144.77;1751296;82;21580;-66
2022/10/09 05:49:15;;;;;;;155.03;88.77;;;;;;;8.18;84.10;96151.78;1751721;82;21034;-66
2022/10/09 05:51:41;;;;;;;98.27;60.13;;;;;;;8.13;84.29;96146.97;1751219;82;21043;-66
2022/10/09 05:54:13;;;;;;;34.13;22.70;;;;;;;8.17;85.36;96144.78;1751471;81;21007;-66
2022/10/09 05:56:41;;;;;;;31.17;22.00;;;;;;;8.22;85.04;96141.27;1752761;81;21015;-65
2022/10/09 05:59:13;;;;;;;82.57;47.43;;;;;;;8.32;86.42;96142.14;1756787;82;21062;-66
2022/10/09 06:01:43;;;;;;;77.47;46.07;;;;;;;8.39;85.86;96145.23;1757116;81;21046;-65
2022/10/09 06:04:15;;;;;;;146.13;81.63;;;;;;;8.47;85.71;96141.28;1757053;82;21015;-65
2022/10/09 06:06:42;;;;;;;90.40;52.90;;;;;;;8.62;86.57;96154.84;1757163;82;20971;-65
2022/10/09 06:09:10;;;;;;;86.80;53.30;;;;;;;8.91;87.12;96157.39;1756469;82;21027;-65
2022/10/09 06:11:39;;;;;;;47.10;31.33;;;;;;;9.22;87.17;96154.63;1757368;81;21035;-65
2022/10/09 06:14:10;;;;;;;29.80;22.97;;;;;;;9.46;86.60;96152.34;1756780;82;21528;-65
2022/10/09 06:16:41;;;;;;;22.23;16.30;;;;;;;9.67;86.43;96147.38;1757069;81;21027;-66
2022/10/09 06:19:12;;;;;;;17.53;12.53;;;;;;;9.91;86.38;96149.86;1757082;81;21058;-66
2022/10/09 06:21:38;;;;;;;15.53;11.30;;;;;;;10.08;85.61;96163.34;1757128;81;21016;-66
2022/10/09 06:24:06;;;;;;;13.60;11.23;;;;;;;10.22;85.56;96149.62;1756588;81;21011;-66
2022/10/09 06:26:33;;;;;;;13.08;9.50;;;;;;;10.44;85.84;96152.12;1757306;81;20991;-66
2022/10/09 06:29:01;;;;;;;13.08;9.08;;;;;;;10.55;84.89;96148.47;1757141;81;21022;-66
2022/10/09 06:31:31;;;;;;;12.33;10.08;;;;;;;10.63;84.80;96148.84;1757241;81;20979;-66
2022/10/09 06:34:00;;;;;;;14.53;9.40;;;;;;;10.70;84.81;96151.86;1757208;82;21019;-66
2022/10/09 06:36:31;;;;;;;12.68;11.22;;;;;;;10.75;84.51;96156.64;1757228;81;21043;-66
2022/10/09 06:39:01;;;;;;;13.00;9.43;;;;;;;10.77;84.42;96161.47;1757027;81;21026;-66
2022/10/09 06:41:29;;;;;;;16.62;9.65;;;;;;;10.78;84.29;96162.75;1757340;81;20987;-65
2022/10/09 06:44:03;;;;;;;12.30;8.18;;;;;;;10.88;84.17;96163.53;1756848;82;21090;-66
2022/10/09 06:46:36;;;;;;;9.53;7.10;;;;;;;10.91;83.75;96161.30;1757193;82;21050;-66
2022/10/09 06:49:04;;;;;;;;;;;;;;;10.96;83.91;96164.77;1732411;82;21023;-65
2022/10/09 06:51:32;;;;;;;8.58;6.92;;;;;;;11.06;83.94;96169.05;1757067;81;20126;-66
2022/10/09 06:54:02;;;;;;;8.65;6.58;;;;;;;11.17;84.01;96160.58;1757159;81;21037;-66
2022/10/09 06:56:31;;;;;;;10.20;7.60;;;;;;;11.34;83.93;96168.73;1756876;82;21002;-65
2022/10/09 06:59:04;;;;;;;13.62;8.65;;;;;;;11.48;83.80;96170.77;1751779;82;21532;-66
2022/10/09 07:01:31;;;;;;;14.47;8.00;;;;;;;11.66;83.75;96159.06;1751740;82;21055;-66
2022/10/09 07:04:02;;;;;;;9.30;8.03;;;;;;;11.74;83.37;96160.28;1751394;81;21049;-66
2022/10/09 07:06:31;;;;;;;12.90;9.25;;;;;;;11.80;83.23;96161.08;1751688;82;21035;-66
2022/10/09 07:09:03;;;;;;;14.68;8.75;;;;;;;11.87;83.34;96160.59;1751337;82;21342;-66
2022/10/09 07:11:38;;;;;;;10.65;8.65;;;;;;;12.04;83.57;96165.60;1751364;81;21023;-66
2022/10/09 07:14:08;;;;;;;12.20;8.40;;;;;;;12.28;83.21;96165.69;1751696;81;21016;-66
2022/10/09 07:16:41;;;;;;;14.10;8.53;;;;;;;12.46;83.01;96165.38;1751631;82;21016;-66
2022/10/09 07:19:10;;;;;;;10.70;8.33;;;;;;;12.70;83.00;96157.89;1751549;82;21505;-66
2022/10/09 07:21:39;;;;;;;35.33;25.62;;;;;;;12.90;82.65;96159.75;1751564;81;21047;-66
2022/10/09 07:24:06;;;;;;;12.35;9.38;;;;;;;13.00;81.70;96156.45;1751404;82;21058;-66
2022/10/09 07:26:38;;;;;;;9.15;8.13;;;;;;;13.20;82.18;96160.94;1751326;81;21015;-66
2022/10/09 07:29:07;;;;;;;11.12;8.88;;;;;;;13.47;81.99;96163.09;1751599;82;20999;-66
2022/10/09 07:31:34;;;;;;;9.25;6.22;;;;;;;13.73;81.72;96160.73;1751493;81;21031;-66
2022/10/09 07:34:01;;;;;;;6.60;5.58;;;;;;;13.84;80.55;96160.06;1751657;81;20995;-66
2022/10/09 07:36:28;;;;;;;6.12;4.92;;;;;;;13.94;80.17;96156.75;1751251;82;21023;-66
2022/10/09 07:38:57;;;;;;;8.33;5.08;;;;;;;14.01;78.64;96152.16;1751349;82;21019;-66
2022/10/09 07:41:27;;;;;;;8.25;5.45;;;;;;;14.05;78.80;96152.05;1751643;81;21023;-66
2022/10/09 07:43:54;;;;;;;7.03;5.33;;;;;;;14.09;78.54;96152.01;1751565;82;21019;-66
2022/10/09 07:46:24;;;;;;;6.90;5.22;;;;;;;14.14;78.55;96153.64;1751464;82;21012;-66
2022/10/09 07:48:51;;;;;;;5.92;5.33;;;;;;;14.24;78.64;96156.95;1751576;81;21035;-66
2022/10/09 07:51:24;;;;;;;7.65;5.70;;;;;;;14.28;78.21;96148.84;1751619;81;21039;-66
2022/10/09 07:53:51;;;;;;;7.37;6.33;;;;;;;14.37;78.55;96154.87;1751507;81;20991;-66
2022/10/09 07:56:27;;;;;;;8.68;7.75;;;;;;;14.47;78.67;96159.91;1751378;81;21521;-66
2022/10/09 07:58:57;;;;;;;11.28;8.15;;;;;;;14.55;78.47;96157.55;1751330;82;21035;-66
2022/10/09 08:01:26;;;;;;;13.15;9.15;;;;;;;14.57;77.83;96159.26;1751672;82;21553;-66
2022/10/09 08:03:54;;;;;;;11.65;9.68;;;;;;;14.56;77.59;96163.27;1751542;81;21014;-66
2022/10/09 08:06:21;;;;;;;10.53;8.60;;;;;;;14.63;77.71;96166.19;1751506;81;21058;-66
2022/10/09 08:08:56;;;;;;;13.70;7.80;;;;;;;14.74;77.32;96165.48;1751324;82;21027;-66
2022/10/09 08:11:25;;;;;;;10.82;7.17;;;;;;;14.76;76.32;96158.31;1751259;81;21027;-66
2022/10/09 08:13:53;;;;;;;9.83;7.30;;;;;;;14.79;76.48;96163.58;1751591;81;21065;-66
2022/10/09 08:16:21;;;;;;;8.70;6.97;;;;;;;14.84;75.82;96164.75;1751577;82;21014;-66
2022/10/09 08:18:48;;;;;;;9.13;7.45;;;;;;;14.90;75.65;96176.11;1751547;82;21047;-66
2022/10/09 08:21:18;;;;;;;9.98;7.65;;;;;;;14.95;74.90;96180.44;1751159;82;21023;-66
2022/10/09 08:23:45;;;;;;;14.15;8.55;;;;;;;14.99;74.66;96177.63;1751341;82;20987;-66
2022/10/09 08:26:19;;;;;;;10.43;7.50;;;;;;;15.05;75.09;96185.92;1751246;81;21544;-66
2022/10/09 08:28:59;;;;;;;9.65;7.92;;;;;;;15.22;75.45;96178.80;1751605;81;20991;-66
2022/10/09 08:31:27;;;;;;;12.20;9.28;;;;;;;15.41;74.62;96181.38;1751154;82;21035;-66
2022/10/09 08:33:56;;;;;;;11.05;8.55;;;;;;;15.62;74.87;96180.34;1751743;82;21519;-66
2022/10/09 08:36:24;;;;;;;10.63;8.60;;;;;;;15.62;72.89;96190.52;1751287;82;21015;-66
2022/10/09 08:38:51;;;;;;;12.80;9.10;;;;;;;15.62;72.89;96190.52;1751313;82;21027;-67
2022/10/09 08:41:39;;;;;;;13.30;8.68;;;;;;;15.57;72.71;96196.42;1751718;81;21019;-67
2022/10/09 08:44:21;;;;;;;10.23;8.60;;;;;;;15.51;72.65;96200.60;1751625;81;21019;-66
2022/10/09 08:47:11;;;;;;;10.68;7.92;;;;;;;15.41;73.03;96206.63;1751755;81;21071;-66
2022/10/09 08:50:01;;;;;;;10.63;8.10;;;;;;;15.40;72.51;96206.23;1751806;81;21059;-66
2022/10/09 08:52:57;;;;;;;10.53;7.15;;;;;;;15.43;72.73;96201.28;1751517;82;21015;-66
2022/10/09 08:55:48;;;;;;;11.97;7.50;;;;;;;15.46;72.81;96206.05;1751714;82;21034;-66
2022/10/09 08:58:18;;;;;;;9.30;8.20;;;;;;;15.50;72.73;96208.19;1754757;81;21031;-66
2022/10/09 09:00:53;;;;;;;17.98;10.20;;;;;;;15.47;72.43;96209.14;1757120;81;21067;-66
2022/10/09 09:04:01;;;;;;;9.83;8.50;;;;;;;15.44;72.30;96205.21;1757019;81;21094;-66
2022/10/09 09:07:12;;;;;;;10.55;7.83;;;;;;;15.48;72.35;96210.00;1757050;82;21078;-66
2022/10/09 09:09:53;;;;;;;11.00;6.92;;;;;;;15.48;72.35;96210.00;1756923;81;20999;-66
2022/10/09 09:12:37;;;;;;;7.72;6.92;;;;;;;15.45;71.85;96204.78;1754705;82;21034;-67
2022/10/09 09:15:34;;;;;;;9.10;6.60;;;;;;;15.44;71.97;96203.88;1755729;82;21019;-66
2022/10/09 09:18:15;;;;;;;8.58;6.22;;;;;;;15.70;72.86;96196.97;1757240;82;21406;-66
2022/10/09 09:20:59;;;;;;;7.45;5.30;;;;;;;16.05;70.95;96194.62;1756605;82;21043;-67
2022/10/09 09:23:30;;;;;;;7.75;6.10;;;;;;;16.37;70.46;96194.93;1756840;82;21054;-66
2022/10/09 09:25:58;;;;;;;9.23;6.62;;;;;;;16.65;68.32;96194.04;1757043;81;21067;-67
2022/10/09 09:28:34;;;;;;;7.53;5.75;;;;;;;16.86;66.19;96197.84;1757123;82;21019;-66
2022/10/09 09:31:20;;;;;;;7.00;6.00;;;;;;;17.02;65.40;96196.84;1756859;81;21031;-66
2022/10/09 09:34:13;;;;;;;7.83;5.97;;;;;;;17.22;66.48;96201.02;1751649;82;20988;-66
2022/10/09 09:36:44;;;;;;;7.60;6.80;;;;;;;17.45;64.33;96202.87;1755902;82;21054;-66
2022/10/09 09:39:11;;;;;;;7.60;6.40;;;;;;;17.61;63.58;96201.84;1756994;81;20999;-66
2022/10/09 09:41:40;;;;;;;10.25;6.72;;;;;;;17.78;64.26;96202.56;1757014;81;21553;-66
2022/10/09 09:44:11;;;;;;;7.97;6.47;;;;;;;17.90;62.27;96202.61;1757048;82;21011;-67
2022/10/09 09:46:39;;;;;;;8.95;6.45;;;;;;;18.07;64.17;96197.97;1756968;81;21188;-66
2022/10/09 09:49:26;;;;;;;9.35;5.92;;;;;;;18.20;63.38;96200.56;1757285;82;21031;-67
2022/10/09 09:51:59;;;;;;;12.40;6.67;;;;;;;18.34;61.46;96202.23;1756935;81;21022;-67
2022/10/09 09:54:29;;;;;;;10.53;6.87;;;;;;;18.48;61.88;96202.14;1757230;82;20987;-67
2022/10/09 09:56:59;;;;;;;7.42;6.15;;;;;;;18.59;60.16;96202.09;1757106;81;21027;-67
2022/10/09 09:59:39;;;;;;;8.58;6.78;;;;;;;18.70;59.67;96194.14;1751539;81;21589;-67
2022/10/09 10:02:16;;;;;;;9.55;5.80;;;;;;;18.88;60.75;96200.08;1751341;81;21588;-67
2022/10/09 10:05:00;;;;;;;9.60;6.40;;;;;;;19.06;59.25;96197.09;1752022;81;21011;-67
2022/10/09 10:07:36;;;;;;;7.25;6.55;;;;;;;19.19;59.46;96196.97;1751480;82;21466;-67
2022/10/09 10:10:20;;;;;;;6.50;5.90;;;;;;;19.29;58.08;96192.56;1751602;81;21004;-66
2022/10/09 10:12:57;;;;;;;8.73;5.90;;;;;;;19.27;55.76;96195.30;1751399;82;21027;-67
2022/10/09 10:15:29;;;;;;;7.97;6.60;;;;;;;19.20;57.16;96197.39;1751714;81;21435;-67
2022/10/09 10:18:05;;;;;;;12.63;7.12;;;;;;;19.16;56.86;96205.61;1752021;81;21031;-67
2022/10/09 10:20:42;;;;;;;8.55;7.65;;;;;;;19.22;57.13;96203.98;1751264;81;21023;-67
2022/10/09 10:23:41;;;;;;;8.63;7.05;;;;;;;19.29;56.40;96203.27;1751331;82;21512;-67
2022/10/09 10:26:24;;;;;;;6.87;6.12;;;;;;;19.50;55.36;96190.75;1751758;82;21509;-69
2022/10/09 10:29:02;;;;;;;10.72;7.20;;;;;;;19.81;54.84;96191.16;1739478;82;21517;-67
2022/10/09 10:31:46;;;;;;;9.78;6.85;;;;;;;20.19;54.37;96186.30;1751565;82;21019;-67
2022/10/09 10:34:24;;;;;;;12.65;6.78;;;;;;;20.49;53.51;96184.84;1751336;82;21050;-67
2022/10/09 10:37:01;;;;;;;9.08;6.67;;;;;;;20.80;52.82;96180.67;1751204;82;21022;-67
2022/10/09 10:39:42;;;;;;;9.43;6.37;;;;;;;21.11;51.56;96184.49;1750934;82;21067;-67
2022/10/09 10:42:20;;;;;;;9.10;6.78;;;;;;;21.35;51.10;96182.37;1749714;82;20992;-67
2022/10/09 10:45:09;;;;;;;12.03;6.45;;;;;;;21.53;49.77;96183.27;1751824;81;20979;-67
2022/10/09 10:47:39;;;;;;;8.50;6.22;;;;;;;21.74;49.41;96182.11;1751208;82;21035;-67
2022/10/09 10:50:14;;;;;;;6.22;5.62;;;;;;;22.06;49.36;96180.86;1751587;82;21493;-67
2022/10/09 10:53:01;;;;;;;7.78;5.95;;;;;;;22.35;48.03;96175.70;1751701;81;21494;-67
2022/10/09 10:55:54;;;;;;;5.97;5.12;;;;;;;22.60;48.22;96168.47;1751461;81;21477;-67
2022/10/09 10:58:26;;;;;;;7.97;5.87;;;;;;;22.92;46.02;96168.44;1751826;81;20983;-67
2022/10/09 11:01:13;;;;;;;6.30;5.60;;;;;;;23.10;44.61;96164.69;1751685;82;21522;-67
2022/10/09 11:04:04;;;;;;;8.10;5.60;;;;;;;23.22;45.53;96165.80;1751149;82;21007;-66
2022/10/09 11:06:40;;;;;;;6.33;5.60;;;;;;;23.53;43.92;96160.76;1751297;82;21023;-67
2022/10/09 11:09:39;;;;;;;6.65;5.97;;;;;;;23.67;43.95;96159.93;1751029;81;21071;-67
2022/10/09 11:12:28;;;;;;;7.12;5.10;;;;;;;23.73;44.78;96160.43;1751616;82;20979;-67
2022/10/09 11:15:18;;;;;;;6.78;5.50;;;;;;;23.61;43.87;96154.45;1751334;82;21023;-67
2022/10/09 11:18:29;;;;;;;5.55;5.10;;;;;;;23.89;44.67;96152.28;1749923;82;21016;-67
2022/10/09 11:21:02;;;;;;;5.95;5.35;;;;;;;24.06;43.90;96152.55;1751431;82;21083;-67
2022/10/09 11:24:06;;;;;;;6.75;4.90;;;;;;;24.34;43.49;96146.73;1751618;81;21525;-67
2022/10/09 11:26:44;;;;;;;6.50;5.12;;;;;;;24.50;42.56;96146.66;1751695;81;21047;-67
2022/10/09 11:29:19;;;;;;;7.40;5.12;;;;;;;24.65;41.28;96147.49;1751565;81;21015;-67
2022/10/09 11:31:59;;;;;;;6.35;5.08;;;;;;;24.48;41.45;96153.98;1729098;83;20998;-66
2022/10/09 11:34:31;;;;;;;7.20;4.62;;;;;;;24.51;41.78;96151.94;1745296;82;21019;-67
2022/10/09 11:37:00;;;;;;;8.15;4.92;;;;;;;24.35;40.76;96152.53;1745545;82;20991;-67
2022/10/09 11:39:32;;;;;;;5.78;5.17;;;;;;;24.48;41.31;96156.19;1745610;82;20984;-67
2022/10/09 11:41:59;;;;;;;6.90;5.30;;;;;;;24.87;41.37;96153.66;1746340;82;21553;-67
2022/10/09 11:44:56;;;;;;;8.85;4.92;;;;;;;25.17;40.32;96149.42;1745518;82;21687;-67
2022/10/09 11:48:00;;;;;;;6.00;4.90;;;;;;;25.42;40.07;96156.71;1745726;82;21059;-67
2022/10/09 11:51:14;;;;;;;5.83;4.92;;;;;;;25.60;38.65;96162.22;1727962;83;21018;-67
2022/10/09 11:53:43;;;;;;;5.08;4.50;;;;;;;25.77;38.44;96153.40;1746148;82;21099;-67
2022/10/09 11:56:28;;;;;;;5.10;4.50;;;;;;;26.04;38.68;96158.73;1745814;82;21078;-67
2022/10/09 11:59:05;;;;;;;5.85;5.00;;;;;;;26.29;37.68;96149.23;1746803;82;21045;-67
2022/10/09 12:01:38;;;;;;;6.45;4.85;;;;;;;26.44;37.81;96154.02;1748902;82;21075;-67